Time,TemperatureF,DewpointF,PressureIn,WindDirection,WindDirectionDegrees,WindSpeedMPH,WindSpeedGustMPH,Humidity,HourlyPrecipIn,Conditions,Clouds,dailyrainin,SoftwareType,DateUTC
2013-04-04 00:00:00,53.4,47.4,30.72,SSE,158,0.0,0.0,80,0.00,,SCT120,0.00,VWS V14.00,2013-04-04 07:00:00,
2013-04-04 00:05:00,53.4,48.0,30.72,SSE,158,0.0,0.0,82,0.00,,SCT120,0.00,VWS V14.00,2013-04-04 07:05:00,
2013-04-04 00:10:00,53.4,48.0,30.72,SSE,158,0.0,0.0,82,0.00,,SCT120,0.00,VWS V14.00,2013-04-04 07:10:00,
2013-04-04 00:15:00,53.4,48.0,30.72,SSE,158,0.0,0.0,82,0.00,,SCT120,0.00,VWS V14.00,2013-04-04 07:15:00,
2013-04-04 00:20:00,53.4,47.7,30.72,SSE,158,0.0,0.0,81,0.00,,SCT120,0.00,VWS V14.00,2013-04-04 07:20:00,
2013-04-04 00:25:00,53.2,47.5,30.71,SSE,158,0.0,0.0,81,0.00,,SCT120,0.00,VWS V14.00,2013-04-04 07:25:00,
2013-04-04 00:30:00,53.4,47.7,30.71,SSE,158,0.0,0.0,81,0.00,,SCT120,0.00,VWS V14.00,2013-04-04 07:30:00,
2013-04-04 00:35:00,53.6,47.6,30.71,SSE,158,0.0,0.0,80,0.00,,SCT120,0.00,VWS V14.00,2013-04-04 07:35:00,
2013-04-04 00:40:00,53.7,47.7,30.71,SSE,158,0.0,0.0,80,0.00,,CLR,0.00,VWS V14.00,2013-04-04 07:40:00,
2013-04-04 00:45:00,54.1,47.7,30.71,SSE,158,3.5,3.5,79,0.00,,CLR,0.00,VWS V14.00,2013-04-04 07:45:00,
2013-04-04 00:50:00,54.3,47.6,30.71,SSE,158,0.0,0.0,78,0.00,,CLR,0.00,VWS V14.00,2013-04-04 07:50:00,
2013-04-04 00:55:00,54.3,47.6,30.71,SSE,158,0.0,0.0,78,0.00,,CLR,0.00,VWS V14.00,2013-04-04 07:55:00,
2013-04-04 01:00:00,54.3,47.2,30.71,SSE,158,0.0,0.0,77,0.00,,CLR,0.00,VWS V14.00,2013-04-04 08:00:00,
2013-04-04 01:05:00,54.3,47.2,30.71,SSE,158,0.0,0.0,77,0.00,,CLR,0.00,VWS V14.00,2013-04-04 08:05:00,
2013-04-04 01:10:00,54.3,47.2,30.71,SSE,158,0.0,0.0,77,0.00,,CLR,0.00,VWS V14.00,2013-04-04 08:10:00,
2013-04-04 01:15:00,54.3,47.2,30.71,SSE,158,0.0,0.0,77,0.00,,CLR,0.00,VWS V14.00,2013-04-04 08:15:00,
2013-04-04 01:20:00,54.3,47.2,30.71,SSE,158,0.0,0.0,77,0.00,,CLR,0.00,VWS V14.00,2013-04-04 08:20:00,
2013-04-04 01:25:00,54.3,47.2,30.71,SSE,158,0.0,0.0,77,0.00,,CLR,0.00,VWS V14.00,2013-04-04 08:25:00,
2013-04-04 01:30:00,54.3,47.2,30.71,SSE,158,0.0,0.0,77,0.00,,CLR,0.00,VWS V14.00,2013-04-04 08:30:00,
2013-04-04 01:35:00,54.3,47.2,30.71,SSE,158,0.0,0.0,77,0.00,,CLR,0.00,VWS V14.00,2013-04-04 08:35:00,
2013-04-04 01:40:00,54.1,46.7,30.71,SSE,158,0.0,0.0,76,0.00,,CLR,0.00,VWS V14.00,2013-04-04 08:40:00,
2013-04-04 01:45:00,53.9,46.5,30.71,SSE,158,0.0,0.0,76,0.00,,FEW120,0.00,VWS V14.00,2013-04-04 08:45:00,
2013-04-04 01:50:00,53.7,46.7,30.71,SSE,158,0.0,0.0,77,0.00,,FEW120,0.00,VWS V14.00,2013-04-04 08:50:00,
2013-04-04 01:55:00,53.7,46.7,30.71,SSE,158,0.0,0.0,77,0.00,,FEW120,0.00,VWS V14.00,2013-04-04 08:55:00,
2013-04-04 02:00:00,53.4,46.7,30.71,SSE,158,0.0,0.0,78,0.00,,FEW120,0.00,VWS V14.00,2013-04-04 09:00:00,
2013-04-04 02:05:00,53.2,46.9,30.71,SSE,158,0.0,0.0,79,0.00,,FEW120,0.00,VWS V14.00,2013-04-04 09:05:00,
2013-04-04 02:10:00,52.8,46.8,30.71,SSE,158,0.0,0.0,80,0.00,,FEW120,0.00,VWS V14.00,2013-04-04 09:10:00,
2013-04-04 02:15:00,52.7,47.0,30.70,SSE,158,1.5,1.5,81,0.00,,FEW120,0.00,VWS V14.00,2013-04-04 09:15:00,
2013-04-04 02:20:00,52.5,47.2,30.70,SSE,158,5.8,5.8,82,0.00,,FEW120,0.00,VWS V14.00,2013-04-04 09:20:00,
2013-04-04 02:25:00,52.3,47.3,30.70,SSE,158,6.9,6.9,83,0.00,,FEW120,0.00,VWS V14.00,2013-04-04 09:25:00,
2013-04-04 02:30:00,52.3,47.9,30.69,North,0,7.6,7.6,85,0.00,,FEW120,0.00,VWS V14.00,2013-04-04 09:30:00,
2013-04-04 02:35:00,52.1,47.4,30.69,North,0,7.8,7.8,84,0.00,,FEW120,0.00,VWS V14.00,2013-04-04 09:35:00,
2013-04-04 02:40:00,52.3,47.3,30.69,North,0,4.9,4.9,83,0.00,,-RA,0.00,VWS V14.00,2013-04-04 09:40:00,
2013-04-04 02:45:00,52.3,47.0,30.68,North,0,5.5,5.5,82,0.00,,-RA,0.00,VWS V14.00,2013-04-04 09:45:00,
2013-04-04 02:50:00,52.5,46.8,30.68,NNW,338,6.9,6.9,81,0.00,,-RA,0.00,VWS V14.00,2013-04-04 09:50:00,
2013-04-04 02:55:00,52.8,46.5,30.68,North,0,10.7,10.7,79,0.00,,-RA,0.00,VWS V14.00,2013-04-04 09:55:00,
2013-04-04 03:00:00,53.2,46.5,30.67,NNW,338,10.9,10.9,78,0.00,,-RA,0.00,VWS V14.00,2013-04-04 10:00:00,
2013-04-04 03:05:00,53.6,46.2,30.66,NNW,338,11.8,11.8,76,0.00,,-RA,0.00,VWS V14.00,2013-04-04 10:05:00,
2013-04-04 03:10:00,53.9,46.2,30.66,North,0,10.0,10.0,75,0.00,,-RA,0.00,VWS V14.00,2013-04-04 10:10:00,
2013-04-04 03:15:00,54.1,46.4,30.65,North,0,14.7,14.7,75,0.00,,-RA,0.00,VWS V14.00,2013-04-04 10:15:00,
2013-04-04 03:20:00,53.9,46.2,30.65,North,0,11.8,11.8,75,0.00,,-RA,0.00,VWS V14.00,2013-04-04 10:20:00,
2013-04-04 03:25:00,53.4,47.4,30.65,North,0,16.3,16.3,80,0.00,,-RA,0.00,VWS V14.00,2013-04-04 10:25:00,
2013-04-04 03:30:00,52.3,47.3,30.64,North,0,14.0,14.0,83,0.00,,-RA,0.00,VWS V14.00,2013-04-04 10:30:00,
2013-04-04 03:35:00,51.6,46.9,30.64,North,0,12.0,12.0,84,0.00,,-RA,0.00,VWS V14.00,2013-04-04 10:35:00,
2013-04-04 03:40:00,51.6,47.2,30.64,North,0,9.6,9.6,85,0.00,,-RA,0.00,VWS V14.00,2013-04-04 10:40:00,
2013-04-04 03:45:00,51.6,47.2,30.63,North,0,14.3,14.3,85,0.00,,-RA,0.00,VWS V14.00,2013-04-04 10:45:00,
2013-04-04 03:50:00,51.6,47.2,30.62,NNE,22,14.0,14.0,85,0.00,,-RA,0.00,VWS V14.00,2013-04-04 10:50:00,
2013-04-04 03:55:00,51.8,47.1,30.62,North,0,15.6,15.6,84,0.00,,-RA,0.00,VWS V14.00,2013-04-04 10:55:00,
2013-04-04 04:00:00,51.9,47.2,30.61,North,0,13.4,13.4,84,0.00,,-RA,0.00,VWS V14.00,2013-04-04 11:00:00,
2013-04-04 04:05:00,51.9,47.2,30.61,NNE,22,11.4,11.4,84,0.00,,-RA,0.00,VWS V14.00,2013-04-04 11:05:00,
2013-04-04 04:10:00,51.8,47.1,30.61,NNE,22,13.1,13.1,84,0.00,,-RA,0.00,VWS V14.00,2013-04-04 11:10:00,
2013-04-04 04:15:00,51.9,47.2,30.60,NNE,22,10.9,10.9,84,0.00,,-RA,0.00,VWS V14.00,2013-04-04 11:15:00,
2013-04-04 04:21:00,51.9,47.2,30.60,NNE,22,10.0,10.0,84,0.00,,-RA,0.00,VWS V14.00,2013-04-04 11:21:00,
2013-04-04 04:26:00,51.9,47.2,30.60,NNE,22,7.8,7.8,84,0.00,,-RA,0.00,VWS V14.00,2013-04-04 11:26:00,
2013-04-04 04:31:00,51.9,46.9,30.60,NNE,22,7.6,7.6,83,0.00,,-RA,0.00,VWS V14.00,2013-04-04 11:31:00,
2013-04-04 04:36:00,52.3,47.3,30.60,NNE,22,8.2,8.2,83,0.00,,-RA,0.00,VWS V14.00,2013-04-04 11:36:00,
2013-04-04 04:41:00,52.3,47.3,30.60,NNE,22,7.8,7.8,83,0.00,,OVC110,0.00,VWS V14.00,2013-04-04 11:41:00,
2013-04-04 04:46:00,52.5,47.5,30.59,North,0,7.6,7.6,83,0.00,,OVC110,0.00,VWS V14.00,2013-04-04 11:46:00,
2013-04-04 04:51:00,52.5,47.5,30.59,North,0,7.3,7.3,83,0.00,,OVC110,0.00,VWS V14.00,2013-04-04 11:51:00,
2013-04-04 04:56:00,52.5,47.5,30.59,North,0,6.4,6.4,83,0.00,,OVC110,0.00,VWS V14.00,2013-04-04 11:56:00,
2013-04-04 05:01:00,52.3,47.3,30.58,North,0,5.5,5.5,83,0.00,,OVC110,0.00,VWS V14.00,2013-04-04 12:01:00,
2013-04-04 05:06:00,52.3,47.6,30.58,North,0,8.7,8.7,84,0.00,,OVC110,0.00,VWS V14.00,2013-04-04 12:06:00,
2013-04-04 05:11:00,52.3,47.6,30.58,NNW,338,7.6,7.6,84,0.00,,OVC110,0.00,VWS V14.00,2013-04-04 12:11:00,
2013-04-04 05:16:00,52.3,47.6,30.57,NNW,338,9.3,9.3,84,0.00,,OVC110,0.00,VWS V14.00,2013-04-04 12:16:00,
2013-04-04 05:21:00,52.5,47.5,30.57,NNW,338,7.3,7.3,83,0.00,,OVC110,0.00,VWS V14.00,2013-04-04 12:21:00,
2013-04-04 05:26:00,52.7,47.7,30.56,NNW,338,6.7,6.7,83,0.00,,OVC110,0.00,VWS V14.00,2013-04-04 12:26:00,
2013-04-04 05:31:00,52.7,47.7,30.56,NW,315,8.2,8.2,83,0.00,,OVC110,0.00,VWS V14.00,2013-04-04 12:31:00,
2013-04-04 05:36:00,52.7,47.7,30.55,NNW,338,8.2,8.2,83,0.00,,OVC110,0.00,VWS V14.00,2013-04-04 12:36:00,
2013-04-04 05:41:00,52.7,47.7,30.56,NNW,338,5.5,5.5,83,0.00,,OVC110,0.00,VWS V14.00,2013-04-04 12:41:00,
2013-04-04 05:46:00,52.7,47.7,30.55,NNW,338,6.0,6.0,83,0.00,,OVC110,0.00,VWS V14.00,2013-04-04 12:46:00,
2013-04-04 05:51:00,52.7,48.0,30.55,North,0,7.8,7.8,84,0.00,,OVC110,0.00,VWS V14.00,2013-04-04 12:51:00,
2013-04-04 05:56:00,52.5,47.8,30.53,NNW,338,10.7,10.7,84,0.00,,OVC110,0.00,VWS V14.00,2013-04-04 12:56:00,
2013-04-04 06:01:00,52.5,47.5,30.53,NNW,338,16.3,16.3,83,0.00,,OVC085,0.00,VWS V14.00,2013-04-04 13:01:00,
2013-04-04 06:06:00,52.5,47.8,30.53,NNW,338,13.6,13.6,84,0.00,,OVC085,0.00,VWS V14.00,2013-04-04 13:06:00,
2013-04-04 06:11:00,52.1,47.4,30.52,NNW,338,9.6,9.6,84,0.00,,OVC085,0.00,VWS V14.00,2013-04-04 13:11:00,
2013-04-04 06:16:00,51.9,47.2,30.52,NNW,338,7.6,7.6,84,0.00,,OVC085,0.00,VWS V14.00,2013-04-04 13:16:00,
2013-04-04 06:21:00,51.9,47.2,30.53,NNW,338,8.0,8.0,84,0.00,,OVC085,0.00,VWS V14.00,2013-04-04 13:21:00,
2013-04-04 06:26:00,52.1,47.4,30.53,North,0,7.8,7.8,84,0.00,,OVC085,0.00,VWS V14.00,2013-04-04 13:26:00,
2013-04-04 06:31:00,52.3,47.3,30.53,NNW,338,6.4,6.4,83,0.00,,OVC085,0.00,VWS V14.00,2013-04-04 13:31:00,
2013-04-04 06:36:00,52.3,47.3,30.53,NNW,338,0.0,0.0,83,0.00,,OVC085,0.00,VWS V14.00,2013-04-04 13:36:00,
2013-04-04 06:41:00,52.3,47.3,30.53,North,0,0.0,0.0,83,0.00,,OVC110,0.00,VWS V14.00,2013-04-04 13:41:00,
2013-04-04 06:46:00,52.3,47.3,30.53,North,0,0.0,0.0,83,0.00,,OVC110,0.00,VWS V14.00,2013-04-04 13:46:00,
2013-04-04 06:51:00,52.3,47.3,30.52,North,0,0.0,0.0,83,0.00,,OVC110,0.00,VWS V14.00,2013-04-04 13:51:00,
2013-04-04 06:56:00,52.3,47.3,30.53,North,0,0.0,0.0,83,0.00,,OVC110,0.00,VWS V14.00,2013-04-04 13:56:00,
2013-04-04 07:01:00,52.3,47.3,30.53,North,0,0.0,0.0,83,0.00,,OVC110,0.00,VWS V14.00,2013-04-04 14:01:00,
2013-04-04 07:06:00,52.1,47.1,30.53,North,0,0.0,0.0,83,0.00,,OVC110,0.00,VWS V14.00,2013-04-04 14:06:00,
2013-04-04 07:11:00,52.1,47.1,30.53,North,0,0.0,0.0,83,0.00,,OVC110,0.00,VWS V14.00,2013-04-04 14:11:00,
2013-04-04 07:16:00,52.1,47.1,30.53,North,0,0.0,0.0,83,0.00,,OVC110,0.00,VWS V14.00,2013-04-04 14:16:00,
2013-04-04 07:21:00,52.3,47.0,30.53,North,0,0.0,0.0,82,0.00,,OVC110,0.00,VWS V14.00,2013-04-04 14:21:00,
2013-04-04 07:26:00,52.3,47.3,30.53,North,0,6.9,6.9,83,0.00,,OVC110,0.00,VWS V14.00,2013-04-04 14:26:00,
2013-04-04 07:31:00,52.1,46.8,30.53,NNE,22,6.7,6.7,82,0.00,,OVC110,0.00,VWS V14.00,2013-04-04 14:31:00,
2013-04-04 07:36:00,51.6,46.6,30.53,North,0,6.7,6.7,83,0.00,,OVC110,0.00,VWS V14.00,2013-04-04 14:36:00,
2013-04-04 07:41:00,51.4,46.4,30.53,North,0,7.3,7.3,83,0.00,,,0.00,VWS V14.00,2013-04-04 14:41:00,
2013-04-04 07:46:00,51.4,46.7,30.53,NNE,22,10.5,10.5,84,0.00,,,0.00,VWS V14.00,2013-04-04 14:46:00,
2013-04-04 07:51:00,51.0,46.3,30.53,NNE,22,9.6,9.6,84,0.00,,,0.00,VWS V14.00,2013-04-04 14:51:00,
2013-04-04 07:56:00,51.0,46.3,30.54,North,0,7.1,7.1,84,0.00,,,0.00,VWS V14.00,2013-04-04 14:56:00,
2013-04-04 08:01:00,51.0,46.3,30.54,North,0,7.3,7.3,84,0.00,,,0.00,VWS V14.00,2013-04-04 15:01:00,
2013-04-04 08:06:00,51.0,46.3,30.54,NNE,22,5.3,5.3,84,0.00,,,0.00,VWS V14.00,2013-04-04 15:06:00,
2013-04-04 08:11:00,50.9,46.2,30.54,NNE,22,3.3,3.3,84,0.00,,,0.00,VWS V14.00,2013-04-04 15:11:00,
2013-04-04 08:16:00,50.9,46.2,30.54,NNE,22,0.0,0.0,84,0.00,,,0.00,VWS V14.00,2013-04-04 15:16:00,
2013-04-04 08:22:00,50.9,46.2,30.54,NNE,22,1.5,1.5,84,0.00,,,0.00,VWS V14.00,2013-04-04 15:22:00,
2013-04-04 08:27:00,50.9,46.2,30.55,NNE,22,0.0,0.0,84,0.00,,,0.00,VWS V14.00,2013-04-04 15:27:00,
2013-04-04 08:32:00,50.7,46.0,30.55,NNE,22,0.0,0.0,84,0.00,,,0.00,VWS V14.00,2013-04-04 15:32:00,
2013-04-04 08:37:00,50.7,46.0,30.55,NNE,22,0.0,0.0,84,0.00,,,0.00,VWS V14.00,2013-04-04 15:37:00,
2013-04-04 08:42:00,50.5,45.8,30.55,NNE,22,0.0,0.0,84,0.00,,-RA,0.00,VWS V14.00,2013-04-04 15:42:00,
2013-04-04 08:47:00,50.5,45.8,30.55,NNE,22,0.0,0.0,84,0.00,,-RA,0.00,VWS V14.00,2013-04-04 15:47:00,
2013-04-04 08:52:00,50.5,46.2,30.55,North,0,3.3,3.3,85,0.00,,-RA,0.00,VWS V14.00,2013-04-04 15:52:00,
2013-04-04 08:57:00,50.3,46.0,30.56,North,0,0.0,0.0,85,0.00,,-RA,0.00,VWS V14.00,2013-04-04 15:57:00,
2013-04-04 09:02:00,50.3,46.0,30.55,North,0,0.0,0.0,85,0.00,,-RA,0.00,VWS V14.00,2013-04-04 16:02:00,
2013-04-04 09:07:00,50.1,45.8,30.55,North,0,0.0,0.0,85,0.00,,-RA,0.00,VWS V14.00,2013-04-04 16:07:00,
2013-04-04 09:12:00,50.3,46.0,30.55,North,0,2.4,2.4,85,0.00,,-RA,0.00,VWS V14.00,2013-04-04 16:12:00,
2013-04-04 09:17:00,50.3,46.3,30.54,North,0,4.2,4.2,86,0.00,,-RA,0.00,VWS V14.00,2013-04-04 16:17:00,
2013-04-04 09:22:00,50.3,46.3,30.55,North,0,0.0,0.0,86,0.00,,-RA,0.00,VWS V14.00,2013-04-04 16:22:00,
2013-04-04 09:27:00,50.3,46.3,30.55,North,0,0.0,0.0,86,0.00,,-RA,0.00,VWS V14.00,2013-04-04 16:27:00,
2013-04-04 09:32:00,50.3,46.3,30.55,North,0,0.0,0.0,86,0.00,,-RA,0.00,VWS V14.00,2013-04-04 16:32:00,
2013-04-04 09:37:00,50.3,46.3,30.55,North,0,0.0,0.0,86,0.00,,-RA,0.00,VWS V14.00,2013-04-04 16:37:00,
2013-04-04 09:42:00,50.5,46.8,30.55,North,0,0.0,0.0,87,0.00,,-RA,0.00,VWS V14.00,2013-04-04 16:42:00,
2013-04-04 09:47:00,50.5,46.8,30.55,North,0,0.0,0.0,87,0.00,,-RA,0.00,VWS V14.00,2013-04-04 16:47:00,
2013-04-04 09:52:00,50.7,47.0,30.55,North,0,0.0,0.0,87,0.00,,-RA,0.00,VWS V14.00,2013-04-04 16:52:00,
2013-04-04 09:57:00,50.7,47.0,30.55,North,0,0.0,0.0,87,0.00,,-RA,0.00,VWS V14.00,2013-04-04 16:57:00,
2013-04-04 10:02:00,50.9,47.2,30.55,North,0,0.0,0.0,87,0.00,,-RA,0.00,VWS V14.00,2013-04-04 17:02:00,
2013-04-04 10:07:00,51.0,47.3,30.55,North,0,0.0,0.0,87,0.00,,-RA,0.00,VWS V14.00,2013-04-04 17:07:00,
2013-04-04 10:12:00,51.4,47.7,30.55,North,0,0.0,0.0,87,0.00,,-RA,0.00,VWS V14.00,2013-04-04 17:12:00,
2013-04-04 10:17:00,51.4,47.7,30.55,North,0,0.0,0.0,87,0.00,,-RA,0.00,VWS V14.00,2013-04-04 17:17:00,
2013-04-04 10:22:00,51.4,47.7,30.55,North,0,0.0,0.0,87,0.00,,-RA,0.00,VWS V14.00,2013-04-04 17:22:00,
2013-04-04 10:27:00,51.4,47.7,30.55,North,0,0.0,0.0,87,0.00,,-RA,0.00,VWS V14.00,2013-04-04 17:27:00,
2013-04-04 10:32:00,51.4,47.7,30.54,North,0,0.0,0.0,87,0.00,,-RA,0.00,VWS V14.00,2013-04-04 17:32:00,
2013-04-04 10:37:00,51.8,48.1,30.54,North,0,0.0,0.0,87,0.00,,-RA,0.00,VWS V14.00,2013-04-04 17:37:00,
2013-04-04 10:42:00,51.9,48.2,30.55,North,0,0.0,0.0,87,0.00,,-RA,0.00,VWS V14.00,2013-04-04 17:42:00,
2013-04-04 10:47:00,52.3,48.5,30.54,North,0,0.0,0.0,87,0.00,,-RA,0.00,VWS V14.00,2013-04-04 17:47:00,
2013-04-04 10:52:00,52.3,48.5,30.53,North,0,0.0,0.0,87,0.00,,-RA,0.00,VWS V14.00,2013-04-04 17:52:00,
2013-04-04 10:57:00,52.3,48.5,30.54,North,0,0.0,0.0,87,0.00,,-RA,0.00,VWS V14.00,2013-04-04 17:57:00,
2013-04-04 11:02:00,52.5,48.8,30.54,North,0,0.0,0.0,87,0.00,,-RA,0.00,VWS V14.00,2013-04-04 18:02:00,
2013-04-04 11:07:00,52.8,49.0,30.54,North,0,0.0,0.0,87,0.00,,-RA,0.00,VWS V14.00,2013-04-04 18:07:00,
2013-04-04 11:12:00,52.8,48.7,30.54,North,0,0.0,0.0,86,0.00,,-RA,0.00,VWS V14.00,2013-04-04 18:12:00,
2013-04-04 11:17:00,52.8,48.7,30.54,North,0,0.0,0.0,86,0.00,,-RA,0.00,VWS V14.00,2013-04-04 18:17:00,
2013-04-04 11:22:00,52.8,49.0,30.54,North,0,0.0,0.0,87,0.00,,-RA,0.00,VWS V14.00,2013-04-04 18:22:00,
2013-04-04 11:27:00,52.8,49.0,30.54,North,0,0.0,0.0,87,0.00,,-RA,0.00,VWS V14.00,2013-04-04 18:27:00,
2013-04-04 11:32:00,52.7,49.0,30.54,North,0,0.0,0.0,87,0.00,,-RA,0.00,VWS V14.00,2013-04-04 18:32:00,
2013-04-04 11:37:00,52.7,49.2,30.54,WNW,292,0.0,0.0,88,0.00,,-RA,0.00,VWS V14.00,2013-04-04 18:37:00,
2013-04-04 11:42:00,52.5,49.0,30.53,WNW,292,0.0,0.0,88,0.00,,-RA,0.00,VWS V14.00,2013-04-04 18:42:00,
2013-04-04 11:47:00,52.7,49.2,30.54,WNW,292,0.0,0.0,88,0.00,,-RA,0.00,VWS V14.00,2013-04-04 18:47:00,
2013-04-04 11:52:00,52.7,49.2,30.53,WNW,292,0.0,0.0,88,0.00,,-RA,0.00,VWS V14.00,2013-04-04 18:52:00,
2013-04-04 11:57:00,52.5,49.0,30.54,WNW,292,0.0,0.0,88,0.00,,-RA,0.00,VWS V14.00,2013-04-04 18:57:00,
2013-04-04 12:02:00,52.5,49.0,30.54,West,270,0.0,0.0,88,0.00,,-RA,0.00,VWS V14.00,2013-04-04 19:02:00,
2013-04-04 12:07:00,52.5,49.0,30.54,West,270,0.0,0.0,88,0.00,,-RA,0.00,VWS V14.00,2013-04-04 19:07:00,
2013-04-04 12:12:00,52.8,49.7,30.54,West,270,0.0,0.0,89,0.00,,-RA,0.00,VWS V14.00,2013-04-04 19:12:00,
2013-04-04 12:17:00,52.7,49.5,30.54,West,270,0.0,0.0,89,0.00,,-RA,0.00,VWS V14.00,2013-04-04 19:17:00,
2013-04-04 12:22:00,52.8,49.7,30.53,West,270,0.0,0.0,89,0.00,,-RA,0.00,VWS V14.00,2013-04-04 19:22:00,
2013-04-04 12:27:00,52.8,49.7,30.53,West,270,0.0,0.0,89,0.00,,-RA,0.00,VWS V14.00,2013-04-04 19:27:00,
2013-04-04 12:32:00,52.8,49.7,30.53,West,270,0.0,0.0,89,0.00,,-RA,0.00,VWS V14.00,2013-04-04 19:32:00,
2013-04-04 12:37:00,52.7,49.5,30.53,West,270,0.0,0.0,89,0.00,,-RA,0.00,VWS V14.00,2013-04-04 19:37:00,
2013-04-04 12:42:00,52.5,49.0,30.53,West,270,0.0,0.0,88,0.00,,-RA,0.00,VWS V14.00,2013-04-04 19:42:00,
2013-04-04 12:47:00,52.7,49.5,30.53,West,270,0.0,0.0,89,0.00,,-RA,0.00,VWS V14.00,2013-04-04 19:47:00,
2013-04-04 12:52:00,52.8,49.7,30.53,West,270,0.0,0.0,89,0.00,,-RA,0.00,VWS V14.00,2013-04-04 19:52:00,
2013-04-04 12:57:00,53.2,49.7,30.52,West,270,0.0,0.0,88,0.00,,-RA,0.00,VWS V14.00,2013-04-04 19:57:00,
2013-04-04 13:02:00,53.2,49.7,30.53,West,270,0.0,0.0,88,0.00,,-RA,0.00,VWS V14.00,2013-04-04 20:02:00,
2013-04-04 13:07:00,53.2,49.7,30.52,West,270,0.0,0.0,88,0.00,,-RA,0.00,VWS V14.00,2013-04-04 20:07:00,
2013-04-04 13:12:00,53.4,49.9,30.52,West,270,0.0,0.0,88,0.00,,-RA,0.00,VWS V14.00,2013-04-04 20:12:00,
2013-04-04 13:17:00,53.6,50.1,30.52,West,270,0.0,0.0,88,0.00,,-RA,0.00,VWS V14.00,2013-04-04 20:17:00,
2013-04-04 13:22:00,53.4,49.9,30.51,West,270,0.0,0.0,88,0.00,,-RA,0.00,VWS V14.00,2013-04-04 20:22:00,
2013-04-04 13:27:00,53.6,50.1,30.51,West,270,0.0,0.0,88,0.00,,-RA,0.00,VWS V14.00,2013-04-04 20:27:00,
2013-04-04 13:32:00,53.7,50.2,30.51,West,270,0.0,0.0,88,0.00,,-RA,0.00,VWS V14.00,2013-04-04 20:32:00,
2013-04-04 13:37:00,54.1,50.9,30.50,West,270,0.0,0.0,89,0.00,,-RA,0.00,VWS V14.00,2013-04-04 20:37:00,
2013-04-04 13:42:00,54.1,50.6,30.50,West,270,0.0,0.0,88,0.00,,-RA,0.00,VWS V14.00,2013-04-04 20:42:00,
2013-04-04 13:47:00,54.1,50.6,30.51,West,270,0.0,0.0,88,0.00,,-RA,0.00,VWS V14.00,2013-04-04 20:47:00,
2013-04-04 13:52:00,54.1,50.9,30.50,West,270,0.0,0.0,89,0.00,,-RA,0.00,VWS V14.00,2013-04-04 20:52:00,
2013-04-04 13:57:00,54.1,50.9,30.50,South,180,0.0,0.0,89,0.00,,-RA,0.00,VWS V14.00,2013-04-04 20:57:00,
2013-04-04 14:02:00,54.1,50.9,30.50,South,180,0.0,0.0,89,0.00,,-RA,0.00,VWS V14.00,2013-04-04 21:02:00,
2013-04-04 14:07:00,54.1,50.9,30.50,South,180,0.0,0.0,89,0.00,,-RA,0.00,VWS V14.00,2013-04-04 21:07:00,
2013-04-04 14:12:00,54.3,51.4,30.50,South,180,0.0,0.0,90,0.00,,-RA,0.00,VWS V14.00,2013-04-04 21:12:00,
2013-04-04 14:17:00,54.5,51.6,30.50,South,180,0.8,0.8,90,0.00,,-RA,0.00,VWS V14.00,2013-04-04 21:17:00,
2013-04-04 14:22:00,54.5,51.6,30.50,South,180,0.0,0.0,90,0.00,,-RA,0.00,VWS V14.00,2013-04-04 21:22:00,
2013-04-04 14:27:00,54.8,51.9,30.49,South,180,0.0,0.0,90,0.00,,-RA,0.00,VWS V14.00,2013-04-04 21:27:00,
2013-04-04 14:32:00,54.8,51.9,30.49,South,180,1.7,1.7,90,0.00,,-RA,0.00,VWS V14.00,2013-04-04 21:32:00,
2013-04-04 14:37:00,54.8,51.9,30.49,SSE,158,0.0,0.0,90,0.00,,-RA,0.00,VWS V14.00,2013-04-04 21:37:00,
2013-04-04 14:42:00,55.0,52.1,30.49,SSE,158,0.0,0.0,90,0.00,,-RA,0.00,VWS V14.00,2013-04-04 21:42:00,
2013-04-04 14:48:00,55.0,52.1,30.49,SSE,158,6.0,6.0,90,0.00,,-RA,0.00,VWS V14.00,2013-04-04 21:48:00,
2013-04-04 14:53:00,55.0,52.1,30.49,SSE,158,1.3,1.3,90,0.00,,-RA,0.00,VWS V14.00,2013-04-04 21:53:00,
2013-04-04 14:58:00,55.2,52.3,30.50,South,180,4.2,4.2,90,0.00,,-RA,0.00,VWS V14.00,2013-04-04 21:58:00,
2013-04-04 15:03:00,55.5,52.6,30.50,South,180,1.7,1.7,90,0.00,,-RA,0.00,VWS V14.00,2013-04-04 22:03:00,
2013-04-04 15:07:00,55.7,52.5,30.50,SSW,202,8.5,8.5,89,0.00,,-RA,0.00,VWS V14.00,2013-04-04 22:07:00,
2013-04-04 15:12:00,55.5,52.6,30.51,South,180,12.5,12.5,90,0.00,,-RA,0.00,VWS V14.00,2013-04-04 22:12:00,
2013-04-04 15:17:00,55.5,52.3,30.52,South,180,13.1,13.1,89,0.00,,-RA,0.00,VWS V14.00,2013-04-04 22:17:00,
2013-04-04 15:22:00,55.9,52.4,30.52,SSE,158,9.1,9.1,88,0.00,,-RA,0.00,VWS V14.00,2013-04-04 22:22:00,
2013-04-04 15:27:00,56.6,52.8,30.53,South,180,19.0,19.0,87,0.00,,-RA,0.00,VWS V14.00,2013-04-04 22:27:00,
2013-04-04 15:32:00,57.3,52.8,30.53,South,180,10.9,10.9,85,0.00,,-RA,0.00,VWS V14.00,2013-04-04 22:32:00,
2013-04-04 15:37:00,57.5,52.7,30.53,South,180,7.1,7.1,84,0.00,,-RA,0.00,VWS V14.00,2013-04-04 22:37:00,
2013-04-04 15:42:00,57.7,52.9,30.53,South,180,13.8,13.8,84,0.00,,-RA,0.00,VWS V14.00,2013-04-04 22:42:00,
2013-04-04 15:47:00,57.7,52.9,30.53,SSE,158,10.5,10.5,84,0.00,,-RA,0.00,VWS V14.00,2013-04-04 22:47:00,
2013-04-04 15:52:00,57.7,52.9,30.53,SSE,158,9.3,9.3,84,0.00,,-RA,0.00,VWS V14.00,2013-04-04 22:52:00,
2013-04-04 15:57:00,58.2,53.4,30.53,SSE,158,9.6,9.6,84,0.00,,-RA,0.00,VWS V14.00,2013-04-04 22:57:00,
2013-04-04 16:02:00,58.8,53.3,30.54,SSE,158,2.9,2.9,82,0.00,,OVC110,0.00,VWS V14.00,2013-04-04 23:02:00,
2013-04-04 16:07:00,58.8,53.0,30.54,SSW,202,10.0,10.0,81,0.00,,OVC110,0.00,VWS V14.00,2013-04-04 23:07:00,
2013-04-04 16:13:00,59.3,52.8,30.55,South,180,12.9,12.9,79,0.00,,OVC110,0.00,VWS V14.00,2013-04-04 23:13:00,
2013-04-04 16:18:00,59.7,52.8,30.55,South,180,8.0,8.0,78,0.00,,OVC110,0.00,VWS V14.00,2013-04-04 23:18:00,
2013-04-04 16:22:00,59.9,52.3,30.55,SSE,158,11.4,11.4,76,0.00,,OVC110,0.00,VWS V14.00,2013-04-04 23:22:00,
2013-04-04 16:27:00,59.9,52.3,30.55,South,180,11.8,11.8,76,0.00,,OVC110,0.00,VWS V14.00,2013-04-04 23:27:00,
2013-04-04 16:32:00,60.0,52.8,30.55,SSE,158,6.9,6.9,77,0.00,,OVC110,0.00,VWS V14.00,2013-04-04 23:32:00,
2013-04-04 16:37:00,60.0,52.4,30.55,SSE,158,2.2,2.2,76,0.00,,OVC110,0.00,VWS V14.00,2013-04-04 23:37:00,
2013-04-04 16:42:00,60.6,52.6,30.56,South,180,11.1,11.1,75,0.00,,BKN110,0.00,VWS V14.00,2013-04-04 23:42:00,
2013-04-04 16:47:00,60.4,51.0,30.56,South,180,13.1,13.1,71,0.00,,BKN110,0.00,VWS V14.00,2013-04-04 23:47:00,
2013-04-04 16:52:00,60.4,50.6,30.56,South,180,18.5,18.5,70,0.00,,BKN110,0.00,VWS V14.00,2013-04-04 23:52:00,
2013-04-04 16:57:00,59.9,50.9,30.56,SSE,158,7.1,7.1,72,0.00,,BKN110,0.00,VWS V14.00,2013-04-04 23:57:00,
2013-04-04 17:02:00,59.3,50.7,30.56,South,180,10.7,10.7,73,0.00,,BKN110,0.00,VWS V14.00,2013-04-05 00:02:00,
2013-04-04 17:07:00,59.1,50.5,30.56,South,180,10.5,10.5,73,0.00,,BKN110,0.00,VWS V14.00,2013-04-05 00:07:00,
2013-04-04 17:12:00,59.1,50.8,30.56,SSW,202,7.8,7.8,74,0.00,,BKN110,0.00,VWS V14.00,2013-04-05 00:12:00,
2013-04-04 17:17:00,58.8,50.5,30.56,South,180,7.6,7.6,74,0.00,,BKN110,0.00,VWS V14.00,2013-04-05 00:17:00,
2013-04-04 17:22:00,59.1,50.8,30.56,SSW,202,15.8,15.8,74,0.00,,OVC075,0.00,VWS V14.00,2013-04-05 00:22:00,
2013-04-04 17:27:00,59.5,50.8,30.56,SSW,202,7.1,7.1,73,0.00,,OVC075,0.00,VWS V14.00,2013-04-05 00:27:00,
2013-04-04 17:32:00,59.5,50.8,30.56,South,180,11.8,11.8,73,0.00,,OVC075,0.00,VWS V14.00,2013-04-05 00:32:00,
2013-04-04 17:37:00,59.5,51.2,30.55,SSE,158,0.0,0.0,74,0.00,,OVC075,0.00,VWS V14.00,2013-04-05 00:37:00,
2013-04-04 17:42:00,59.7,51.4,30.56,South,180,11.1,11.1,74,0.00,,OVC075,0.00,VWS V14.00,2013-04-05 00:42:00,
2013-04-04 17:47:00,59.5,50.8,30.55,SSE,158,7.8,7.8,73,0.00,,OVC075,0.00,VWS V14.00,2013-04-05 00:47:00,
2013-04-04 17:52:00,59.3,50.7,30.56,South,180,10.9,10.9,73,0.00,,OVC075,0.00,VWS V14.00,2013-04-05 00:52:00,
2013-04-04 17:57:00,59.3,50.7,30.56,SSE,158,4.4,4.4,73,0.00,,OVC075,0.00,VWS V14.00,2013-04-05 00:57:00,
2013-04-04 18:02:00,59.3,51.0,30.56,South,180,9.3,9.3,74,0.00,,OVC075,0.00,VWS V14.00,2013-04-05 01:02:00,
2013-04-04 18:07:00,58.8,50.9,30.56,SSE,158,3.3,3.3,75,0.00,,OVC075,0.00,VWS V14.00,2013-04-05 01:07:00,
2013-04-04 18:12:00,58.8,50.9,30.56,South,180,6.9,6.9,75,0.00,,OVC075,0.00,VWS V14.00,2013-04-05 01:12:00,
2013-04-04 18:17:00,58.8,50.9,30.56,South,180,4.6,4.6,75,0.00,,OVC075,0.00,VWS V14.00,2013-04-05 01:17:00,
2013-04-04 18:22:00,58.8,50.9,30.56,SSE,158,4.9,4.9,75,0.00,,OVC075,0.00,VWS V14.00,2013-04-05 01:22:00,
2013-04-04 18:27:00,58.8,50.9,30.56,South,180,9.6,9.6,75,0.00,,OVC075,0.00,VWS V14.00,2013-04-05 01:27:00,
2013-04-04 18:32:00,58.8,50.9,30.56,South,180,8.0,8.0,75,0.00,,OVC075,0.00,VWS V14.00,2013-04-05 01:32:00,
2013-04-04 18:37:00,58.8,50.9,30.56,South,180,7.3,7.3,75,0.00,,OVC075,0.00,VWS V14.00,2013-04-05 01:37:00,
2013-04-04 18:42:00,58.8,50.9,30.56,SSW,202,7.1,7.1,75,0.00,,OVC055,0.00,VWS V14.00,2013-04-05 01:42:00,
2013-04-04 18:47:00,58.8,50.5,30.55,SSE,158,10.5,10.5,74,0.00,,OVC055,0.00,VWS V14.00,2013-04-05 01:47:00,
2013-04-04 18:53:00,58.8,50.2,30.56,South,180,11.1,11.1,73,0.00,,OVC055,0.00,VWS V14.00,2013-04-05 01:53:00,
2013-04-04 18:58:00,58.8,49.8,30.56,South,180,17.2,17.2,72,0.00,,OVC055,0.00,VWS V14.00,2013-04-05 01:58:00,
2013-04-04 19:03:00,58.8,49.8,30.56,South,180,7.3,7.3,72,0.00,,OVC055,0.00,VWS V14.00,2013-04-05 02:03:00,
2013-04-04 19:08:00,58.8,49.8,30.56,South,180,16.1,16.1,72,0.00,,OVC055,0.00,VWS V14.00,2013-04-05 02:08:00,
2013-04-04 19:13:00,58.8,49.8,30.56,SSW,202,10.9,10.9,72,0.00,,OVC055,0.00,VWS V14.00,2013-04-05 02:13:00,
2013-04-04 19:18:00,58.8,49.8,30.56,South,180,12.0,12.0,72,0.00,,OVC055,0.00,VWS V14.00,2013-04-05 02:18:00,
2013-04-04 19:23:00,58.6,49.6,30.56,South,180,10.0,10.0,72,0.00,,OVC055,0.00,VWS V14.00,2013-04-05 02:23:00,
2013-04-04 19:28:00,58.6,49.6,30.56,South,180,12.0,12.0,72,0.00,,OVC055,0.00,VWS V14.00,2013-04-05 02:28:00,
2013-04-04 19:33:00,58.4,49.4,30.56,South,180,5.1,5.1,72,0.00,,OVC055,0.00,VWS V14.00,2013-04-05 02:33:00,
2013-04-04 19:38:00,58.2,49.2,30.56,SSW,202,7.6,7.6,72,0.00,,OVC055,0.00,VWS V14.00,2013-04-05 02:38:00,
2013-04-04 19:43:00,58.1,49.1,30.56,SSW,202,10.2,10.2,72,0.00,,-RA,0.00,VWS V14.00,2013-04-05 02:43:00,
2013-04-04 19:48:00,58.1,49.1,30.57,SSW,202,10.5,10.5,72,0.00,,-RA,0.00,VWS V14.00,2013-04-05 02:48:00,
2013-04-04 19:53:00,58.1,49.1,30.57,SSW,202,12.0,12.0,72,0.00,,-RA,0.00,VWS V14.00,2013-04-05 02:53:00,
2013-04-04 19:58:00,58.1,49.1,30.57,SSE,158,8.0,8.0,72,0.00,,-RA,0.00,VWS V14.00,2013-04-05 02:58:00,
2013-04-04 20:02:00,58.1,48.8,30.57,South,180,8.0,8.0,71,0.00,,-RA,0.00,VWS V14.00,2013-04-05 03:02:00,
2013-04-04 20:07:00,57.9,48.9,30.57,South,180,12.3,12.3,72,0.00,,-RA,0.00,VWS V14.00,2013-04-05 03:07:00,
2013-04-04 20:12:00,57.9,48.9,30.57,South,180,9.8,9.8,72,0.00,,-RA,0.00,VWS V14.00,2013-04-05 03:12:00,
2013-04-04 20:17:00,57.9,48.9,30.58,South,180,7.6,7.6,72,0.00,,-RA,0.00,VWS V14.00,2013-04-05 03:17:00,
2013-04-04 20:22:00,57.7,48.8,30.58,SSE,158,2.0,2.0,72,0.00,,-RA,0.00,VWS V14.00,2013-04-05 03:22:00,
2013-04-04 20:28:00,57.5,48.6,30.58,South,180,10.7,10.7,72,0.00,,-RA,0.00,VWS V14.00,2013-04-05 03:28:00,
2013-04-04 20:33:00,57.5,48.6,30.58,SSW,202,11.6,11.6,72,0.00,,-RA,0.00,VWS V14.00,2013-04-05 03:33:00,
2013-04-04 20:38:00,57.5,48.2,30.58,SSE,158,10.9,10.9,71,0.00,,-RA,0.00,VWS V14.00,2013-04-05 03:38:00,
2013-04-04 20:43:00,57.3,48.4,30.59,SSW,202,10.2,10.2,72,0.00,,OVC060,0.00,VWS V14.00,2013-04-05 03:43:00,
2013-04-04 20:48:00,57.3,48.4,30.58,South,180,12.7,12.7,72,0.00,,OVC060,0.00,VWS V14.00,2013-04-05 03:48:00,
2013-04-04 20:53:00,57.3,48.4,30.59,SSW,202,4.6,4.6,72,0.00,,OVC060,0.00,VWS V14.00,2013-04-05 03:53:00,
2013-04-04 20:58:00,57.3,48.4,30.59,South,180,7.3,7.3,72,0.00,,OVC060,0.00,VWS V14.00,2013-04-05 03:58:00,
2013-04-04 21:00:00,57.2,48.3,30.59,South,180,11.4,11.4,72,0.00,,OVC060,0.00,VWS V14.00,2013-04-05 04:00:00,
2013-04-04 21:05:00,57.0,48.4,30.59,SSE,158,13.1,13.1,73,0.00,,OVC060,0.00,VWS V14.00,2013-04-05 04:05:00,
2013-04-04 21:10:00,56.8,48.2,30.59,SSW,202,12.9,12.9,73,0.00,,OVC060,0.00,VWS V14.00,2013-04-05 04:10:00,
2013-04-04 21:15:00,56.8,48.2,30.59,SW,225,9.3,9.3,73,0.00,,OVC060,0.00,VWS V14.00,2013-04-05 04:15:00,
2013-04-04 21:20:00,57.0,48.4,30.59,South,180,10.2,10.2,73,0.00,,OVC060,0.00,VWS V14.00,2013-04-05 04:20:00,
2013-04-04 21:25:00,57.0,48.8,30.60,South,180,6.9,6.9,74,0.00,,OVC060,0.00,VWS V14.00,2013-04-05 04:25:00,
2013-04-04 21:30:00,57.0,48.8,30.60,SE,135,3.3,3.3,74,0.00,,OVC060,0.00,VWS V14.00,2013-04-05 04:30:00,
2013-04-04 21:35:00,56.8,48.6,30.60,South,180,6.7,6.7,74,0.00,,OVC060,0.00,VWS V14.00,2013-04-05 04:35:00,
2013-04-04 21:40:00,56.4,48.6,30.60,South,180,10.5,10.5,75,0.00,,OVC060,0.00,VWS V14.00,2013-04-05 04:40:00,
2013-04-04 21:45:00,56.4,48.6,30.60,South,180,16.3,16.3,75,0.00,,-RA,0.00,VWS V14.00,2013-04-05 04:45:00,
2013-04-04 21:50:00,56.4,48.2,30.60,SSW,202,14.5,14.5,74,0.00,,-RA,0.00,VWS V14.00,2013-04-05 04:50:00,
2013-04-04 21:55:00,56.4,48.2,30.61,South,180,10.0,10.0,74,0.00,,-RA,0.00,VWS V14.00,2013-04-05 04:55:00,
2013-04-04 22:00:00,56.4,48.2,30.61,SSE,158,7.3,7.3,74,0.00,,-RA,0.00,VWS V14.00,2013-04-05 05:00:00,
2013-04-04 22:05:00,56.4,48.6,30.61,SSE,158,11.8,11.8,75,0.00,,-RA,0.00,VWS V14.00,2013-04-05 05:05:00,
2013-04-04 22:10:00,56.1,48.7,30.62,South,180,10.2,10.2,76,0.00,,-RA,0.00,VWS V14.00,2013-04-05 05:10:00,
2013-04-04 22:15:00,55.7,48.6,30.61,SE,135,3.8,3.8,77,0.00,,-RA,0.00,VWS V14.00,2013-04-05 05:15:00,
2013-04-04 22:20:00,55.5,48.4,30.62,South,180,10.5,10.5,77,0.00,,-RA,0.00,VWS V14.00,2013-04-05 05:20:00,
2013-04-04 22:25:00,55.2,48.5,30.62,SSE,158,8.2,8.2,78,0.00,,-RA,0.00,VWS V14.00,2013-04-05 05:25:00,
2013-04-04 22:30:00,55.0,48.6,30.62,South,180,15.4,15.4,79,0.00,,-RA,0.00,VWS V14.00,2013-04-05 05:30:00,
2013-04-04 22:35:00,55.0,48.3,30.62,South,180,12.3,12.3,78,0.00,,-RA,0.00,VWS V14.00,2013-04-05 05:35:00,
2013-04-04 22:40:00,55.0,48.3,30.63,South,180,6.9,6.9,78,0.00,,OVC044,0.00,VWS V14.00,2013-04-05 05:40:00,
2013-04-04 22:45:00,55.0,48.3,30.63,SSE,158,7.3,7.3,78,0.00,,OVC044,0.00,VWS V14.00,2013-04-05 05:45:00,
2013-04-04 22:50:00,54.8,48.1,30.63,South,180,6.0,6.0,78,0.00,,OVC044,0.00,VWS V14.00,2013-04-05 05:50:00,
2013-04-04 22:55:00,54.8,47.7,30.63,South,180,8.0,8.0,77,0.00,,OVC044,0.00,VWS V14.00,2013-04-05 05:55:00,
2013-04-04 23:00:00,55.0,47.9,30.63,South,180,8.9,8.9,77,0.00,,OVC044,0.00,VWS V14.00,2013-04-05 06:00:00,
2013-04-04 23:05:00,55.0,47.6,30.63,SE,135,10.5,10.5,76,0.00,,OVC044,0.00,VWS V14.00,2013-04-05 06:05:00,
2013-04-04 23:10:00,55.0,47.6,30.63,SSE,158,8.5,8.5,76,0.00,,OVC044,0.00,VWS V14.00,2013-04-05 06:10:00,
2013-04-04 23:15:00,55.0,47.6,30.63,SSE,158,11.1,11.1,76,0.00,,OVC044,0.00,VWS V14.00,2013-04-05 06:15:00,
2013-04-04 23:20:00,55.0,47.6,30.63,SE,135,9.6,9.6,76,0.00,,OVC044,0.00,VWS V14.00,2013-04-05 06:20:00,
2013-04-04 23:25:00,54.8,47.0,30.63,South,180,11.4,11.4,75,0.00,,OVC044,0.00,VWS V14.00,2013-04-05 06:25:00,
2013-04-04 23:30:00,54.8,47.0,30.63,South,180,12.7,12.7,75,0.00,,OVC044,0.00,VWS V14.00,2013-04-05 06:30:00,
2013-04-04 23:35:00,54.6,46.8,30.63,SSE,158,6.7,6.7,75,0.00,,OVC044,0.00,VWS V14.00,2013-04-05 06:35:00,
2013-04-04 23:40:00,54.3,46.6,30.64,SSW,202,14.5,14.5,75,0.00,,OVC060,0.00,VWS V14.00,2013-04-05 06:40:00,
2013-04-04 23:45:00,54.3,46.9,30.63,South,180,4.9,4.9,76,0.00,,OVC060,0.00,VWS V14.00,2013-04-05 06:45:00,
2013-04-04 23:50:00,54.3,46.9,30.63,SE,135,8.7,8.7,76,0.00,,OVC060,0.00,VWS V14.00,2013-04-05 06:50:00,
2013-04-04 23:55:00,54.1,47.1,30.63,South,180,11.8,11.8,77,0.00,,OVC060,0.00,VWS V14.00,2013-04-05 06:55:00,